Time;durP1;ratioP1;P1;durP2;ratioP2;P2;SDS_P1;SDS_P2;PMS_P1;PMS_P2;Temp;Humidity;BMP_temperature;BMP_pressure;BME280_temperature;BME280_humidity;BME280_pressure;Samples;Min_cycle;Max_cycle;Signal;HPM_P1;HPM_P2
2021/04/19 00:01:15;;;;;;;30.55;20.27;;;;;;;7.57;80.93;94264.54;833434;71;33215;-81
2021/04/19 00:16:10;;;;;;;33.50;22.02;;;;;;;7.58;80.73;94253.83;829038;71;30349;-82
2021/04/19 00:31:20;;;;;;;34.43;22.10;;;;;;;7.50;80.55;94245.28;833507;71;33388;-82
2021/04/19 00:46:19;;;;;;;34.83;21.30;;;;;;;7.50;81.18;94227.52;833808;71;32745;-82
2021/04/19 01:01:10;;;;;;;31.97;19.20;;;;;;;7.38;81.90;94222.65;828113;71;29810;-79
2021/04/19 01:16:17;;;;;;;40.95;21.77;;;;;;;7.45;82.16;94213.22;829434;71;32718;-82
2021/04/19 01:31:14;;;;;;;35.40;18.50;;;;;;;7.46;81.80;94203.02;827239;71;32754;-81
2021/04/19 01:46:15;;;;;;;25.08;15.48;;;;;;;7.45;81.28;94206.69;833538;71;32700;-80
2021/04/19 02:01:12;;;;;;;27.70;16.17;;;;;;;7.46;80.75;94205.63;827891;71;32075;-79
2021/04/19 02:16:30;;;;;;;26.33;17.25;;;;;;;7.36;80.64;94192.93;833794;71;30596;-81
2021/04/19 02:31:17;;;;;;;29.77;17.45;;;;;;;7.42;80.84;94174.06;827233;71;32704;-81
2021/04/19 02:46:15;;;;;;;26.55;16.35;;;;;;;7.41;80.80;94158.17;834008;71;33396;-82
2021/04/19 03:01:54;;;;;;;28.62;18.55;;;;;;;7.39;80.72;94157.13;827203;71;33412;-80
2021/04/19 03:16:10;;;;;;;29.72;17.15;;;;;;;7.40;80.63;94154.78;828012;71;30286;-80
2021/04/19 03:31:14;;;;;;;29.35;19.42;;;;;;;7.43;81.36;94149.00;829996;71;31489;-80
2021/04/19 03:46:34;;;;;;;22.52;16.15;;;;;;;7.41;80.34;94124.23;833742;71;33303;-80
2021/04/19 04:01:12;;;;;;;21.75;14.58;;;;;;;7.21;80.18;94114.23;833374;71;30328;-77
2021/04/19 04:16:08;;;;;;;25.00;15.43;;;;;;;6.91;81.35;94120.49;827727;71;30775;-75
2021/04/19 04:31:13;;;;;;;24.45;16.27;;;;;;;6.95;82.33;94112.38;827852;71;32498;-77
2021/04/19 04:46:24;;;;;;;33.00;20.27;;;;;;;6.62;83.74;94120.47;827495;71;33054;-76
2021/04/19 05:01:10;;;;;;;45.52;24.50;;;;;;;6.14;87.71;94111.91;834137;71;30319;-76
2021/04/19 05:16:27;;;;;;;34.98;19.85;;;;;;;6.11;88.93;94129.36;815140;70;32973;-76
2021/04/19 05:31:21;;;;;;;31.00;18.40;;;;;;;6.49;90.56;94132.28;832850;71;33314;-77
2021/04/19 05:46:08;;;;;;;28.35;17.55;;;;;;;6.86;90.72;94125.00;827344;71;28450;-76
2021/04/19 06:01:18;;;;;;;34.35;21.93;;;;;;;7.12;90.09;94110.69;831206;71;32248;-76
2021/04/19 06:16:21;;;;;;;45.55;29.45;;;;;;;7.21;90.16;94099.11;833097;71;31710;-76
2021/04/19 06:31:18;;;;;;;46.18;29.80;;;;;;;7.35;89.80;94097.41;826366;71;31817;-75
2021/04/19 06:46:10;;;;;;;43.15;27.73;;;;;;;7.45;89.54;94093.92;835042;71;29239;-76
2021/04/19 07:01:16;;;;;;;37.60;24.43;;;;;;;7.48;88.25;94089.46;826768;71;32007;-76
2021/04/19 07:16:20;;;;;;;30.32;17.25;;;;;;;7.43;87.74;94100.72;826411;71;31734;-76
2021/04/19 07:31:11;;;;;;;25.50;16.07;;;;;;;7.35;86.75;94099.24;827529;71;29148;-77
2021/04/19 07:46:14;;;;;;;25.92;18.98;;;;;;;6.66;87.64;94079.77;827641;71;29221;-73
2021/04/19 08:01:14;;;;;;;16.05;10.40;;;;;;;5.82;91.93;94065.43;832976;71;31783;-75
2021/04/19 08:16:19;;;;;;;5.35;4.25;;;;;;;5.51;90.66;94061.63;827174;71;29852;-77
2021/04/19 08:31:19;;;;;;;3.70;3.40;;;;;;;5.49;90.47;94057.22;827210;71;32099;-75
2021/04/19 08:46:11;;;;;;;4.40;4.00;;;;;;;5.72;90.99;94035.02;827225;71;28898;-76
2021/04/19 09:01:45;;;;;;;4.95;4.40;;;;;;;5.93;92.43;94023.19;827724;71;31291;-77
2021/04/19 09:16:25;;;;;;;6.45;5.25;;;;;;;6.14;92.39;94017.34;827557;71;31721;-76
2021/04/19 09:31:23;;;;;;;8.78;6.10;;;;;;;6.19;92.29;94019.92;827101;71;32244;-76
2021/04/19 09:46:12;;;;;;;8.40;5.97;;;;;;;6.55;92.39;94006.60;833467;71;29298;-74
2021/04/19 10:01:17;;;;;;;8.18;5.97;;;;;;;6.91;90.65;94003.67;826500;71;31737;-75
2021/04/19 10:16:16;;;;;;;4.30;3.90;;;;;;;6.88;86.68;93988.06;827052;71;31711;-74
2021/04/19 10:31:21;;;;;;;5.15;4.65;;;;;;;7.39;86.55;93973.13;822039;71;32709;-78
2021/04/19 10:46:22;;;;;;;4.92;4.20;;;;;;;8.31;84.68;93969.75;826403;71;31813;-75
2021/04/19 11:01:30;;;;;;;6.80;6.15;;;;;;;8.03;82.76;93956.61;833149;71;32030;-75
2021/04/19 11:16:26;;;;;;;6.12;5.53;;;;;;;7.67;82.88;93943.83;828761;71;31778;-78
2021/04/19 11:46:20;;;;;;;5.90;5.20;;;;;;;7.75;83.76;93932.74;827504;71;33232;-77
2021/04/19 12:01:10;;;;;;;6.42;5.42;;;;;;;7.71;82.75;93931.22;829476;71;29762;-77
2021/04/19 12:16:14;;;;;;;5.72;4.62;;;;;;;7.69;83.01;93926.80;834525;71;32705;-75
2021/04/19 12:31:15;;;;;;;4.50;4.12;;;;;;;7.68;82.53;93920.02;832632;71;33122;-79
2021/04/19 12:46:18;;;;;;;3.12;2.92;;;;;;;7.67;80.90;93888.99;833323;71;32886;-76
2021/04/19 13:01:10;;;;;;;3.50;3.30;;;;;;;7.72;80.33;93901.95;833309;71;30758;-75
2021/04/19 13:16:36;;;;;;;2.60;2.50;;;;;;;7.83;78.75;93887.70;832905;71;32786;-78
2021/04/19 13:31:15;;;;;;;3.27;2.50;;;;;;;7.83;77.21;93893.70;826607;71;32782;-74
2021/04/19 13:46:12;;;;;;;3.67;3.33;;;;;;;7.91;77.24;93886.28;822321;70;32144;-75
2021/04/19 14:01:14;;;;;;;2.70;2.50;;;;;;;7.96;76.66;93879.66;827776;71;32836;-77
2021/04/19 14:16:10;;;;;;;6.97;5.97;;;;;;;8.10;77.84;93876.55;827659;71;30388;-76
2021/04/19 14:31:13;;;;;;;8.00;6.47;;;;;;;8.27;77.66;93873.37;827586;71;33353;-76
2021/04/19 14:46:09;;;;;;;5.10;4.60;;;;;;;8.32;76.13;93862.08;833173;71;30276;-78
2021/04/19 15:01:41;;;;;;;3.17;2.85;;;;;;;8.09;73.72;93866.37;833509;71;30356;-77
2021/04/19 15:16:14;;;;;;;4.40;4.00;;;;;;;7.90;74.69;93865.89;833451;71;33212;-76
2021/04/19 15:31:08;;;;;;;3.47;3.17;;;;;;;7.80;74.34;93853.77;827561;71;29776;-76
2021/04/19 15:46:09;;;;;;;3.33;3.02;;;;;;;7.80;74.08;93853.00;828788;71;29866;-77
2021/04/19 16:01:15;;;;;;;3.05;2.85;;;;;;;7.52;73.51;93846.91;832946;71;33179;-76
2021/04/19 16:16:28;;;;;;;5.53;4.17;;;;;;;7.35;74.21;93846.11;832908;71;32816;-78
2021/04/19 16:31:08;;;;;;;11.88;8.88;;;;;;;7.36;76.39;93859.39;827593;71;30243;-76
2021/04/19 16:46:21;;;;;;;10.53;8.60;;;;;;;8.24;79.86;93855.67;833580;71;33519;-79
2021/04/19 17:01:16;;;;;;;12.90;4.10;;;;;;;7.88;76.82;93864.10;827105;71;32761;-76
2021/04/19 17:16:26;;;;;;;6.05;5.08;;;;;;;7.71;76.66;93860.72;835004;71;32644;-77
2021/04/19 17:31:15;;;;;;;7.33;4.97;;;;;;;7.60;75.80;93864.02;824734;71;33264;-77
2021/04/19 17:46:15;;;;;;;7.75;6.37;;;;;;;7.62;75.57;93884.09;819045;71;32702;-77
2021/04/19 18:01:15;;;;;;;11.43;7.75;;;;;;;7.66;75.63;93885.59;826918;70;33146;-77
2021/04/19 18:16:16;;;;;;;10.90;8.85;;;;;;;7.68;75.57;93887.92;816433;71;32874;-75
2021/04/19 18:31:17;;;;;;;11.00;8.93;;;;;;;7.54;74.96;93878.20;833115;71;32752;-76
2021/04/19 18:46:16;;;;;;;12.60;9.48;;;;;;;7.53;74.47;93873.27;818639;71;33271;-75
2021/04/19 19:01:31;;;;;;;10.60;8.03;;;;;;;7.61;74.37;93886.45;822295;71;32930;-78
2021/04/19 19:16:22;;;;;;;11.33;8.10;;;;;;;7.29;74.15;93836.27;822636;70;32815;-78
2021/04/19 19:31:12;;;;;;;9.43;6.72;;;;;;;7.61;74.77;93881.76;828760;71;31406;-79
2021/04/19 19:46:14;;;;;;;9.93;7.50;;;;;;;7.66;75.44;93882.20;833188;71;32729;-79
2021/04/19 20:01:11;;;;;;;10.80;8.48;;;;;;;7.70;74.97;93876.66;833507;71;30341;-77
2021/04/19 20:16:09;;;;;;;12.75;9.80;;;;;;;7.71;74.76;93880.84;828416;71;27778;-77
2021/04/19 20:31:20;;;;;;;11.28;8.08;;;;;;;7.71;75.47;93876.92;828015;71;33728;-80
2021/04/19 20:46:54;;;;;;;6.20;5.20;;;;;;;7.67;74.53;93875.94;778781;75;32978;-76
2021/04/19 21:01:47;;;;;;;7.72;5.28;;;;;;;7.61;75.24;93864.25;827139;71;32681;-76
2021/04/19 21:16:09;;;;;;;11.03;7.25;;;;;;;7.58;75.95;93867.95;833548;71;30623;-75
2021/04/19 21:31:12;;;;;;;8.20;7.00;;;;;;;7.36;77.08;93830.69;829462;71;31969;-75
2021/04/19 21:46:12;;;;;;;7.72;6.20;;;;;;;7.48;77.74;93851.14;828535;71;32759;-79
2021/04/19 22:01:42;;;;;;;11.28;8.38;;;;;;;7.43;79.04;93851.99;835290;71;30217;-77
2021/04/19 22:16:12;;;;;;;9.65;7.90;;;;;;;7.43;79.58;93851.99;828245;71;31520;-76
2021/04/19 22:31:09;;;;;;;10.85;7.53;;;;;;;7.41;79.27;93841.83;827754;71;29653;-79
2021/04/19 22:46:11;;;;;;;11.28;8.80;;;;;;;7.41;78.95;93832.70;827622;71;31256;-78
2021/04/19 23:01:22;;;;;;;9.15;8.18;;;;;;;7.34;78.57;93827.08;828708;71;32722;-78
2021/04/19 23:16:17;;;;;;;8.95;8.05;;;;;;;7.33;78.28;93829.96;826773;71;32747;-78
2021/04/19 23:31:09;;;;;;;9.00;7.28;;;;;;;7.32;77.78;93835.72;833429;71;30359;-78
2021/04/19 23:46:16;;;;;;;7.50;6.70;;;;;;;7.29;77.19;93841.48;826988;71;32679;-76
